Time;durP1;ratioP1;P1;durP2;ratioP2;P2;SDS_P1;SDS_P2;PMS_P1;PMS_P2;Temp;Humidity;BMP_temperature;BMP_pressure;BME280_temperature;BME280_humidity;BME280_pressure;Samples;Min_cycle;Max_cycle;Signal;HPM_P1;HPM_P2
2022/12/29 00:01:27;;;;;;;;;;;;;;;;;;5036725;28;19943;-27
2022/12/29 00:03:53;;;;;;;;;;;;;;;;;;5036329;28;19921;-28
2022/12/29 00:06:19;;;;;;;;;;;;;;;;;;5036557;28;19919;-28
2022/12/29 00:08:45;;;;;;;;;;;;;;;;;;5036531;28;19992;-29
2022/12/29 00:11:11;;;;;;;;;;;;;;;;;;5036776;28;19963;-25
2022/12/29 00:16:21;;;;;;;;;;;;;;;;;;5036747;28;19924;-27
2022/12/29 00:18:47;;;;;;;;;;;;;;;;;;5036329;28;20256;-27
2022/12/29 00:35:10;;;;;;;;;;;;;;;;;;5035747;28;19939;-26
2022/12/29 00:45:49;;;;;;;;;;;;;;;;;;5036214;28;19932;-28
2022/12/29 00:49:29;;;;;;;;;;;;;;;;;;5036022;28;19913;-26
2022/12/29 00:51:01;;;;;;;;;;;;;;;;;;5035586;28;19995;-27
2022/12/29 00:53:27;;;;;;;;;;;;;;;;;;5036162;28;20022;-25
2022/12/29 00:55:53;;;;;;;;;;;;;;;;;;5034646;28;19923;-28
2022/12/29 00:58:19;;;;;;;;;;;;;;;;;;5035577;28;19916;-30
2022/12/29 01:00:45;;;;;;;;;;;;;;;;;;5035552;28;19913;-25
2022/12/29 01:03:11;;;;;;;;;;;;;;;;;;5035574;28;19971;-26
2022/12/29 01:05:37;;;;;;;;;;;;;;;;;;5035467;28;19917;-28
2022/12/29 01:08:03;;;;;;;;;;;;;;;;;;5035722;28;20325;-25
2022/12/29 01:10:29;;;;;;;;;;;;;;;;;;5035362;28;19917;-30
2022/12/29 01:12:55;;;;;;;;;;;;;;;;;;5035322;28;20310;-27
2022/12/29 01:15:21;;;;;;;;;;;;;;;;;;5035290;28;19924;-31
2022/12/29 01:17:47;;;;;;;;;;;;;;;;;;5035492;28;19913;-31
2022/12/29 01:20:13;;;;;;;;;;;;;;;;;;5035197;28;19913;-28
2022/12/29 01:22:39;;;;;;;;;;;;;;;;;;5035035;28;19913;-26
2022/12/29 01:25:05;;;;;;;;;;;;;;;;;;5035065;28;19917;-31
2022/12/29 01:27:31;;;;;;;;;;;;;;;;;;5035067;28;19913;-29
2022/12/29 01:29:57;;;;;;;;;;;;;;;;;;5035318;28;19967;-25
2022/12/29 01:32:23;;;;;;;;;;;;;;;;;;5035157;28;19913;-31
2022/12/29 01:34:49;;;;;;;;;;;;;;;;;;5035012;28;19999;-25
2022/12/29 01:37:15;;;;;;;;;;;;;;;;;;5034964;28;20331;-25
2022/12/29 01:39:41;;;;;;;;;;;;;;;;;;5034940;28;19917;-28
2022/12/29 01:42:06;;;;;;;;;;;;;;;;;;5035057;28;19917;-27
2022/12/29 01:44:32;;;;;;;;;;;;;;;;;;5034807;28;20309;-28
2022/12/29 01:46:58;;;;;;;;;;;;;;;;;;5035092;28;19978;-28
2022/12/29 01:49:24;;;;;;;;;;;;;;;;;;5034824;28;20252;-26
2022/12/29 01:51:50;;;;;;;;;;;;;;;;;;5033725;28;19913;-26
2022/12/29 01:54:16;;;;;;;;;;;;;;;;;;5034748;28;19967;-26
2022/12/29 01:56:42;;;;;;;;;;;;;;;;;;5034695;28;20039;-26
2022/12/29 01:59:08;;;;;;;;;;;;;;;;;;5034749;28;19924;-31
2022/12/29 02:01:34;;;;;;;;;;;;;;;;;;5034725;28;19937;-29
2022/12/29 02:04:00;;;;;;;;;;;;;;;;;;5034436;28;20048;-28
2022/12/29 02:06:26;;;;;;;;;;;;;;;;;;5034690;28;20244;-26
2022/12/29 02:08:53;;;;;;;;;;;;;;;;;;5033731;28;19913;-25
2022/12/29 02:11:19;;;;;;;;;;;;;;;;;;5034911;28;20297;-26
2022/12/29 02:13:45;;;;;;;;;;;;;;;;;;5034542;28;19941;-31
2022/12/29 02:16:11;;;;;;;;;;;;;;;;;;5034548;28;19917;-29
2022/12/29 02:18:37;;;;;;;;;;;;;;;;;;5034793;28;19914;-28
2022/12/29 02:21:03;;;;;;;;;;;;;;;;;;5034496;28;19920;-30
2022/12/29 02:23:29;;;;;;;;;;;;;;;;;;5034308;28;19917;-30
2022/12/29 02:25:55;;;;;;;;;;;;;;;;;;5034445;28;20422;-31
2022/12/29 02:28:21;;;;;;;;;;;;;;;;;;5034485;28;19959;-27
2022/12/29 02:30:47;;;;;;;;;;;;;;;;;;5034437;28;20367;-26
2022/12/29 02:33:13;;;;;;;;;;;;;;;;;;5034374;28;19921;-29
2022/12/29 02:35:39;;;;;;;;;;;;;;;;;;5034367;28;19928;-28
2022/12/29 02:38:05;;;;;;;;;;;;;;;;;;5034376;28;19914;-29
2022/12/29 02:40:30;;;;;;;;;;;;;;;;;;5034304;28;19920;-28
2022/12/29 02:42:56;;;;;;;;;;;;;;;;;;5034441;28;19914;-29
2022/12/29 02:45:22;;;;;;;;;;;;;;;;;;5034592;28;19924;-30
2022/12/29 02:47:48;;;;;;;;;;;;;;;;;;5034277;28;19920;-31
2022/12/29 02:50:14;;;;;;;;;;;;;;;;;;5034262;28;19989;-29
2022/12/29 02:52:40;;;;;;;;;;;;;;;;;;5033135;28;19910;-29
2022/12/29 02:55:06;;;;;;;;;;;;;;;;;;5034481;28;20023;-28
2022/12/29 02:57:33;;;;;;;;;;;;;;;;;;5034315;28;20017;-28
2022/12/29 02:59:59;;;;;;;;;;;;;;;;;;5037815;28;19913;-29
2022/12/29 03:02:25;;;;;;;;;;;;;;;;;;5037726;28;19913;-27
2022/12/29 03:04:51;;;;;;;;;;;;;;;;;;5037553;28;19921;-29
2022/12/29 03:07:16;;;;;;;;;;;;;;;;;;5037695;28;19917;-25
2022/12/29 03:09:42;;;;;;;;;;;;;;;;;;5037605;28;20011;-30
2022/12/29 03:12:09;;;;;;;;;;;;;;;;;;5037705;28;19975;-26
2022/12/29 03:17:20;;;;;;;;;;;;;;;;;;5037698;28;19967;-28
2022/12/29 03:19:45;;;;;;;;;;;;;;;;;;5037456;28;20355;-27
2022/12/29 03:22:27;;;;;;;;;;;;;;;;;;5037608;28;20003;-27
2022/12/29 03:24:53;;;;;;;;;;;;;;;;;;5037633;28;19913;-26
2022/12/29 03:27:19;;;;;;;;;;;;;;;;;;5037609;28;19949;-32
2022/12/29 03:29:45;;;;;;;;;;;;;;;;;;5037209;28;20291;-32
2022/12/29 03:32:11;;;;;;;;;;;;;;;;;;5037166;28;19912;-25
2022/12/29 03:34:37;;;;;;;;;;;;;;;;;;5037430;28;20008;-31
2022/12/29 03:37:03;;;;;;;;;;;;;;;;;;5037403;28;19913;-32
2022/12/29 03:39:29;;;;;;;;;;;;;;;;;;5037117;28;19913;-31
2022/12/29 03:41:55;;;;;;;;;;;;;;;;;;5037015;28;20344;-25
2022/12/29 03:44:21;;;;;;;;;;;;;;;;;;5036932;28;20356;-29
2022/12/29 03:46:47;;;;;;;;;;;;;;;;;;5036893;28;20102;-28
2022/12/29 03:49:13;;;;;;;;;;;;;;;;;;5036961;28;19909;-28
2022/12/29 03:51:39;;;;;;;;;;;;;;;;;;5036906;28;19952;-31
2022/12/29 03:54:05;;;;;;;;;;;;;;;;;;5036972;28;19923;-25
2022/12/29 03:56:31;;;;;;;;;;;;;;;;;;5036783;28;19909;-30
2022/12/29 03:58:57;;;;;;;;;;;;;;;;;;5036954;28;19913;-25
2022/12/29 04:01:23;;;;;;;;;;;;;;;;;;5037006;28;19917;-30
2022/12/29 04:03:49;;;;;;;;;;;;;;;;;;5036361;28;20421;-29
2022/12/29 04:06:15;;;;;;;;;;;;;;;;;;5036622;28;19948;-28
2022/12/29 04:08:41;;;;;;;;;;;;;;;;;;5036527;28;19909;-31
2022/12/29 04:11:07;;;;;;;;;;;;;;;;;;5035566;28;19924;-29
2022/12/29 04:13:33;;;;;;;;;;;;;;;;;;5036450;28;20340;-31
2022/12/29 04:15:59;;;;;;;;;;;;;;;;;;5036450;28;19913;-26
2022/12/29 04:18:25;;;;;;;;;;;;;;;;;;5036647;28;20355;-31
2022/12/29 04:21:00;;;;;;;;;;;;;;;;;;5036349;28;19920;-29
2022/12/29 04:23:26;;;;;;;;;;;;;;;;;;5036386;28;19918;-27
2022/12/29 04:25:52;;;;;;;;;;;;;;;;;;5036241;28;20004;-33
2022/12/29 04:28:18;;;;;;;;;;;;;;;;;;5036188;28;19924;-30
2022/12/29 04:30:44;;;;;;;;;;;;;;;;;;5035105;28;19979;-31
2022/12/29 04:33:10;;;;;;;;;;;;;;;;;;5036091;28;19909;-27
2022/12/29 04:35:36;;;;;;;;;;;;;;;;;;5035994;28;19920;-25
2022/12/29 04:38:02;;;;;;;;;;;;;;;;;;5036150;28;19913;-25
2022/12/29 04:40:28;;;;;;;;;;;;;;;;;;5036163;28;19924;-26
2022/12/29 04:42:54;;;;;;;;;;;;;;;;;;5035863;28;20256;-27
2022/12/29 04:45:20;;;;;;;;;;;;;;;;;;5035716;28;19951;-25
2022/12/29 04:47:46;;;;;;;;;;;;;;;;;;5035753;28;19949;-26
2022/12/29 04:50:12;;;;;;;;;;;;;;;;;;5035746;28;19921;-30
2022/12/29 04:52:38;;;;;;;;;;;;;;;;;;5035743;28;19956;-29
2022/12/29 04:55:04;;;;;;;;;;;;;;;;;;5035503;28;19959;-27
2022/12/29 04:57:30;;;;;;;;;;;;;;;;;;5035512;28;19924;-28
2022/12/29 04:59:56;;;;;;;;;;;;;;;;;;5035399;28;20252;-25
2022/12/29 05:02:22;;;;;;;;;;;;;;;;;;5486097;22;20375;-23
2022/12/29 05:04:48;;;;;;;;;;;;;;;;;;5055381;28;20016;-24
2022/12/29 05:07:13;;;;;;;;;;;;;;;;;;5055252;28;20323;-24
2022/12/29 05:09:39;;;;;;;;;;;;;;;;;;5055230;28;19991;-24
2022/12/29 05:12:06;;;;;;;;;;;;;;;;;;5054939;28;19971;-24
2022/12/29 05:14:32;;;;;;;;;;;;;;;;;;5054701;28;19912;-24
2022/12/29 05:16:58;;;;;;;;;;;;;;;;;;5054805;28;19916;-24
2022/12/29 05:19:24;;;;;;;;;;;;;;;;;;5054986;28;19923;-24
2022/12/29 05:21:50;;;;;;;;;;;;;;;;;;5055024;28;19913;-23
2022/12/29 05:24:16;;;;;;;;;;;;;;;;;;5054431;28;20008;-24
2022/12/29 05:26:42;;;;;;;;;;;;;;;;;;5054574;28;19909;-24
2022/12/29 05:29:08;;;;;;;;;;;;;;;;;;5054830;28;19921;-24
2022/12/29 05:31:35;;;;;;;;;;;;;;;;;;5054557;28;20050;-24
2022/12/29 05:34:01;;;;;;;;;;;;;;;;;;5054869;28;20365;-24
2022/12/29 05:36:27;;;;;;;;;;;;;;;;;;5054550;28;20001;-24
2022/12/29 05:38:53;;;;;;;;;;;;;;;;;;5054667;28;19924;-24
2022/12/29 05:41:19;;;;;;;;;;;;;;;;;;5054506;28;19913;-24
2022/12/29 05:43:45;;;;;;;;;;;;;;;;;;5054430;28;20322;-24
2022/12/29 05:46:11;;;;;;;;;;;;;;;;;;5054608;28;19975;-24
2022/12/29 05:48:37;;;;;;;;;;;;;;;;;;5054809;28;19966;-24
2022/12/29 05:51:03;;;;;;;;;;;;;;;;;;5054498;28;20008;-24
2022/12/29 05:53:29;;;;;;;;;;;;;;;;;;5053409;28;19924;-24
2022/12/29 05:55:55;;;;;;;;;;;;;;;;;;5054565;28;19909;-24
2022/12/29 05:58:21;;;;;;;;;;;;;;;;;;5054468;28;20251;-24
2022/12/29 06:00:47;;;;;;;;;;;;;;;;;;5054506;28;19955;-24
2022/12/29 06:03:13;;;;;;;;;;;;;;;;;;5053757;28;19984;-24
2022/12/29 06:05:39;;;;;;;;;;;;;;;;;;5054294;28;20254;-24
2022/12/29 06:08:05;;;;;;;;;;;;;;;;;;5054089;28;19912;-24
2022/12/29 06:10:31;;;;;;;;;;;;;;;;;;5054080;28;19915;-24
2022/12/29 06:12:57;;;;;;;;;;;;;;;;;;5054105;28;19920;-24
2022/12/29 06:15:23;;;;;;;;;;;;;;;;;;5054292;28;19909;-24
2022/12/29 06:17:49;;;;;;;;;;;;;;;;;;5053447;28;19955;-24
2022/12/29 06:20:15;;;;;;;;;;;;;;;;;;5054523;28;19996;-24
2022/12/29 06:22:41;;;;;;;;;;;;;;;;;;5053879;28;19920;-24
2022/12/29 06:25:07;;;;;;;;;;;;;;;;;;5054005;28;19971;-24
2022/12/29 06:27:33;;;;;;;;;;;;;;;;;;5054046;28;20040;-25
2022/12/29 06:29:59;;;;;;;;;;;;;;;;;;5054026;28;19931;-24
2022/12/29 06:32:25;;;;;;;;;;;;;;;;;;5052490;28;19913;-24
2022/12/29 06:34:51;;;;;;;;;;;;;;;;;;5056702;28;19909;-25
2022/12/29 06:37:17;;;;;;;;;;;;;;;;;;5057894;28;19924;-24
2022/12/29 06:39:43;;;;;;;;;;;;;;;;;;5057784;28;20239;-24
2022/12/29 06:42:09;;;;;;;;;;;;;;;;;;5057468;28;20254;-24
2022/12/29 06:44:35;;;;;;;;;;;;;;;;;;5057352;28;19917;-24
2022/12/29 06:47:01;;;;;;;;;;;;;;;;;;5057415;28;19971;-24
2022/12/29 06:49:27;;;;;;;;;;;;;;;;;;5057668;28;19956;-24
2022/12/29 06:51:53;;;;;;;;;;;;;;;;;;5057424;28;19912;-25
2022/12/29 06:54:19;;;;;;;;;;;;;;;;;;5057335;28;20011;-25
2022/12/29 06:56:45;;;;;;;;;;;;;;;;;;5057641;28;20327;-24
2022/12/29 06:59:11;;;;;;;;;;;;;;;;;;5057441;28;19908;-24
2022/12/29 07:01:37;;;;;;;;;;;;;;;;;;5056305;28;19923;-24
2022/12/29 07:04:03;;;;;;;;;;;;;;;;;;5056848;28;20234;-24
2022/12/29 07:06:29;;;;;;;;;;;;;;;;;;5057266;28;19963;-25
2022/12/29 07:08:57;;;;;;;;;;;;;;;;;;5057454;28;19908;-24
2022/12/29 07:11:23;;;;;;;;;;;;;;;;;;5057380;28;19913;-24
2022/12/29 07:13:49;;;;;;;;;;;;;;;;;;5056734;28;19915;-24
2022/12/29 07:16:15;;;;;;;;;;;;;;;;;;5056644;28;19920;-24
2022/12/29 07:18:41;;;;;;;;;;;;;;;;;;5056556;28;19909;-24
2022/12/29 07:21:07;;;;;;;;;;;;;;;;;;5056780;28;19952;-29
2022/12/29 07:23:33;;;;;;;;;;;;;;;;;;5056363;28;20038;-24
2022/12/29 07:25:59;;;;;;;;;;;;;;;;;;5055609;28;19913;-35
2022/12/29 07:28:25;;;;;;;;;;;;;;;;;;5056638;28;19916;-24
2022/12/29 07:30:51;;;;;;;;;;;;;;;;;;5056487;28;19995;-24
2022/12/29 07:33:17;;;;;;;;;;;;;;;;;;5056451;28;20328;-24
2022/12/29 07:35:43;;;;;;;;;;;;;;;;;;5056595;28;19948;-24
2022/12/29 07:38:08;;;;;;;;;;;;;;;;;;5055225;28;19956;-24
2022/12/29 07:40:34;;;;;;;;;;;;;;;;;;5056705;28;19909;-24
2022/12/29 07:43:01;;;;;;;;;;;;;;;;;;5056619;28;20008;-24
2022/12/29 07:45:27;;;;;;;;;;;;;;;;;;5055444;28;19924;-24
2022/12/29 07:47:53;;;;;;;;;;;;;;;;;;5056858;28;20395;-24
2022/12/29 07:50:19;;;;;;;;;;;;;;;;;;5056535;28;19940;-24
2022/12/29 07:52:46;;;;;;;;;;;;;;;;;;5056381;28;19948;-24
2022/12/29 07:55:12;;;;;;;;;;;;;;;;;;5056452;28;19952;-24
2022/12/29 07:57:38;;;;;;;;;;;;;;;;;;5055646;28;19909;-24
2022/12/29 08:00:04;;;;;;;;;;;;;;;;;;5056336;28;20050;-24
2022/12/29 08:02:30;;;;;;;;;;;;;;;;;;5055982;28;19909;-23
2022/12/29 08:04:56;;;;;;;;;;;;;;;;;;5056364;28;20008;-24
2022/12/29 08:07:22;;;;;;;;;;;;;;;;;;5056411;28;19910;-24
2022/12/29 08:09:48;;;;;;;;;;;;;;;;;;5056189;28;20225;-24
2022/12/29 08:12:14;;;;;;;;;;;;;;;;;;5056029;28;19924;-24
2022/12/29 08:14:40;;;;;;;;;;;;;;;;;;5056070;28;19982;-24
2022/12/29 08:17:06;;;;;;;;;;;;;;;;;;5055987;28;19923;-24
2022/12/29 08:19:32;;;;;;;;;;;;;;;;;;5055846;28;19909;-24
2022/12/29 08:21:58;;;;;;;;;;;;;;;;;;5055760;28;19912;-24
2022/12/29 08:24:24;;;;;;;;;;;;;;;;;;5055818;28;19917;-24
2022/12/29 08:26:50;;;;;;;;;;;;;;;;;;5056651;28;19924;-24
2022/12/29 08:29:16;;;;;;;;;;;;;;;;;;5056007;28;19913;-24
2022/12/29 08:31:42;;;;;;;;;;;;;;;;;;5055672;28;19920;-24
2022/12/29 08:34:08;;;;;;;;;;;;;;;;;;5055763;28;20233;-24
2022/12/29 08:36:34;;;;;;;;;;;;;;;;;;5055812;28;20255;-24
2022/12/29 08:39:00;;;;;;;;;;;;;;;;;;5055660;28;19909;-25
2022/12/29 08:41:26;;;;;;;;;;;;;;;;;;5054469;28;19924;-25
2022/12/29 08:43:52;;;;;;;;;;;;;;;;;;5055534;28;19944;-25
2022/12/29 08:46:19;;;;;;;;;;;;;;;;;;5056139;28;19925;-25
2022/12/29 08:48:45;;;;;;;;;;;;;;;;;;5055744;28;20345;-25
2022/12/29 08:51:11;;;;;;;;;;;;;;;;;;5055357;28;19920;-25
2022/12/29 08:53:37;;;;;;;;;;;;;;;;;;5055390;28;20304;-25
2022/12/29 08:56:03;;;;;;;;;;;;;;;;;;5053717;28;20381;-25
2022/12/29 08:58:29;;;;;;;;;;;;;;;;;;5055477;28;19912;-25
2022/12/29 09:00:55;;;;;;;;;;;;;;;;;;5054240;28;20332;-25
2022/12/29 09:03:21;;;;;;;;;;;;;;;;;;5053924;28;19921;-25
2022/12/29 09:05:47;;;;;;;;;;;;;;;;;;5055314;28;20063;-25
2022/12/29 09:08:13;;;;;;;;;;;;;;;;;;5055131;28;20319;-25
2022/12/29 09:10:39;;;;;;;;;;;;;;;;;;5055106;28;19919;-25
2022/12/29 09:13:05;;;;;;;;;;;;;;;;;;5055250;28;19909;-25
2022/12/29 09:15:31;;;;;;;;;;;;;;;;;;5054908;28;19958;-25
2022/12/29 09:17:57;;;;;;;;;;;;;;;;;;5055093;28;19910;-25
2022/12/29 09:20:23;;;;;;;;;;;;;;;;;;5054872;28;19918;-24
2022/12/29 09:22:49;;;;;;;;;;;;;;;;;;5054983;28;19909;-24
2022/12/29 09:25:15;;;;;;;;;;;;;;;;;;5054671;28;19927;-24
2022/12/29 09:27:41;;;;;;;;;;;;;;;;;;5054710;28;19913;-24
2022/12/29 09:30:07;;;;;;;;;;;;;;;;;;5054935;28;19920;-25
2022/12/29 09:32:33;;;;;;;;;;;;;;;;;;5054641;28;19910;-24
2022/12/29 09:34:59;;;;;;;;;;;;;;;;;;5053420;28;19912;-24
2022/12/29 09:37:25;;;;;;;;;;;;;;;;;;5054366;28;19924;-24
2022/12/29 09:39:51;;;;;;;;;;;;;;;;;;5054632;28;19912;-25
2022/12/29 09:42:17;;;;;;;;;;;;;;;;;;5054389;28;19908;-25
2022/12/29 09:44:43;;;;;;;;;;;;;;;;;;5054231;28;19916;-24
2022/12/29 09:47:09;;;;;;;;;;;;;;;;;;5054368;28;20185;-24
2022/12/29 09:49:35;;;;;;;;;;;;;;;;;;5054096;28;19909;-24
2022/12/29 09:52:01;;;;;;;;;;;;;;;;;;5054200;28;20004;-24
2022/12/29 09:54:27;;;;;;;;;;;;;;;;;;5053020;28;19990;-24
2022/12/29 09:56:53;;;;;;;;;;;;;;;;;;5052868;28;20214;-24
2022/12/29 09:59:19;;;;;;;;;;;;;;;;;;5054135;28;19924;-25
2022/12/29 10:01:45;;;;;;;;;;;;;;;;;;5053834;28;20263;-24
2022/12/29 10:04:11;;;;;;;;;;;;;;;;;;5053508;28;19924;-24
2022/12/29 10:06:37;;;;;;;;;;;;;;;;;;5053859;28;20267;-24
2022/12/29 10:09:03;;;;;;;;;;;;;;;;;;5056741;28;19948;-24
2022/12/29 10:11:31;;;;;;;;;;;;;;;;;;5057974;28;19924;-24
2022/12/29 10:13:57;;;;;;;;;;;;;;;;;;5057785;28;19912;-24
2022/12/29 10:16:23;;;;;;;;;;;;;;;;;;5057894;28;20018;-24
2022/12/29 10:18:49;;;;;;;;;;;;;;;;;;5057757;28;19918;-24
2022/12/29 10:21:16;;;;;;;;;;;;;;;;;;5057841;28;19913;-24
2022/12/29 10:23:42;;;;;;;;;;;;;;;;;;5056925;28;20283;-24
2022/12/29 10:26:07;;;;;;;;;;;;;;;;;;5058219;28;19920;-24
2022/12/29 10:28:34;;;;;;;;;;;;;;;;;;5058446;28;19974;-24
2022/12/29 10:31:00;;;;;;;;;;;;;;;;;;5058378;28;19912;-24
2022/12/29 10:33:26;;;;;;;;;;;;;;;;;;5058018;28;19935;-24
2022/12/29 10:35:52;;;;;;;;;;;;;;;;;;5058018;28;20390;-24
2022/12/29 10:38:18;;;;;;;;;;;;;;;;;;5058053;28;19948;-24
2022/12/29 10:40:44;;;;;;;;;;;;;;;;;;5057861;28;19921;-24
2022/12/29 10:43:10;;;;;;;;;;;;;;;;;;5057816;28;19971;-24
2022/12/29 10:45:36;;;;;;;;;;;;;;;;;;5057643;28;19970;-24
2022/12/29 10:48:02;;;;;;;;;;;;;;;;;;5057670;28;20316;-24
2022/12/29 10:50:29;;;;;;;;;;;;;;;;;;5057749;28;19913;-24
2022/12/29 10:52:55;;;;;;;;;;;;;;;;;;5057663;28;19913;-24
2022/12/29 10:55:21;;;;;;;;;;;;;;;;;;5056300;28;19908;-24
2022/12/29 10:57:48;;;;;;;;;;;;;;;;;;5057241;28;20232;-24
2022/12/29 11:00:15;;;;;;;;;;;;;;;;;;5057280;28;19916;-24
2022/12/29 11:02:41;;;;;;;;;;;;;;;;;;5057299;28;19921;-23
2022/12/29 11:05:08;;;;;;;;;;;;;;;;;;5057028;28;20387;-24
2022/12/29 11:07:34;;;;;;;;;;;;;;;;;;5057428;28;19939;-24
2022/12/29 11:10:00;;;;;;;;;;;;;;;;;;5057612;28;19913;-24
2022/12/29 11:12:26;;;;;;;;;;;;;;;;;;5056196;28;20240;-24
2022/12/29 11:14:52;;;;;;;;;;;;;;;;;;5057165;28;19951;-24
2022/12/29 11:17:18;;;;;;;;;;;;;;;;;;5056999;28;19909;-24
2022/12/29 11:19:44;;;;;;;;;;;;;;;;;;5056485;28;20348;-24
2022/12/29 11:22:10;;;;;;;;;;;;;;;;;;5057385;28;19960;-24
2022/12/29 11:24:36;;;;;;;;;;;;;;;;;;5057040;28;19951;-25
2022/12/29 11:27:02;;;;;;;;;;;;;;;;;;5055902;28;19913;-24
2022/12/29 11:29:29;;;;;;;;;;;;;;;;;;5056947;28;20232;-24
2022/12/29 11:31:55;;;;;;;;;;;;;;;;;;5056774;28;20454;-24
2022/12/29 11:34:21;;;;;;;;;;;;;;;;;;5056644;28;19999;-24
2022/12/29 11:36:47;;;;;;;;;;;;;;;;;;5057189;28;20002;-24
2022/12/29 11:39:13;;;;;;;;;;;;;;;;;;5056758;28;19913;-24
2022/12/29 11:41:39;;;;;;;;;;;;;;;;;;5056732;28;19913;-23
2022/12/29 11:44:05;;;;;;;;;;;;;;;;;;5056472;28;19925;-27
2022/12/29 11:46:31;;;;;;;;;;;;;;;;;;5056619;28;19924;-24
2022/12/29 11:48:59;;;;;;;;;;;;;;;;;;5056470;28;19909;-24
2022/12/29 11:51:25;;;;;;;;;;;;;;;;;;5055452;28;19996;-24
2022/12/29 11:53:51;;;;;;;;;;;;;;;;;;5056277;28;19952;-24
2022/12/29 11:56:17;;;;;;;;;;;;;;;;;;5056552;28;19913;-24
2022/12/29 11:58:43;;;;;;;;;;;;;;;;;;5055894;28;19915;-24
2022/12/29 12:01:09;;;;;;;;;;;;;;;;;;5056014;28;19947;-24
2022/12/29 12:03:35;;;;;;;;;;;;;;;;;;5055287;28;19956;-24
2022/12/29 12:06:01;;;;;;;;;;;;;;;;;;5055985;28;19908;-24
2022/12/29 12:08:27;;;;;;;;;;;;;;;;;;5055687;28;19913;-25
2022/12/29 12:10:53;;;;;;;;;;;;;;;;;;5055935;28;20336;-24
2022/12/29 12:13:19;;;;;;;;;;;;;;;;;;5055716;28;19963;-26
2022/12/29 12:15:45;;;;;;;;;;;;;;;;;;5055579;28;19948;-24
2022/12/29 12:18:11;;;;;;;;;;;;;;;;;;5055781;28;19913;-25
2022/12/29 12:20:37;;;;;;;;;;;;;;;;;;5055571;28;20284;-24
2022/12/29 12:23:03;;;;;;;;;;;;;;;;;;5054464;28;19958;-24
2022/12/29 12:25:29;;;;;;;;;;;;;;;;;;5056031;28;19975;-25
2022/12/29 12:27:55;;;;;;;;;;;;;;;;;;5055763;28;19955;-24
2022/12/29 12:30:21;;;;;;;;;;;;;;;;;;5053884;28;19963;-24
2022/12/29 12:32:47;;;;;;;;;;;;;;;;;;5055657;28;19920;-25
2022/12/29 12:35:13;;;;;;;;;;;;;;;;;;5055651;28;19913;-24
2022/12/29 12:37:39;;;;;;;;;;;;;;;;;;5055637;28;20388;-24
2022/12/29 12:40:07;;;;;;;;;;;;;;;;;;5055417;28;20055;-24
2022/12/29 12:42:33;;;;;;;;;;;;;;;;;;5055368;28;19912;-24
2022/12/29 12:44:59;;;;;;;;;;;;;;;;;;5055225;28;20247;-25
2022/12/29 12:47:25;;;;;;;;;;;;;;;;;;5055440;28;19952;-25
2022/12/29 12:49:50;;;;;;;;;;;;;;;;;;5055439;28;19928;-25
2022/12/29 12:52:16;;;;;;;;;;;;;;;;;;5055158;28;19916;-25
2022/12/29 12:54:42;;;;;;;;;;;;;;;;;;5055345;28;19919;-24
2022/12/29 12:57:08;;;;;;;;;;;;;;;;;;5055144;28;19919;-24
2022/12/29 12:59:34;;;;;;;;;;;;;;;;;;5055442;28;19921;-24
2022/12/29 13:02:00;;;;;;;;;;;;;;;;;;5054732;28;20000;-24
2022/12/29 13:04:26;;;;;;;;;;;;;;;;;;5054743;28;20328;-24
2022/12/29 13:06:52;;;;;;;;;;;;;;;;;;5055071;28;20003;-24
2022/12/29 13:09:18;;;;;;;;;;;;;;;;;;5055237;28;19908;-25
2022/12/29 13:11:45;;;;;;;;;;;;;;;;;;5054918;28;19917;-24
2022/12/29 13:14:11;;;;;;;;;;;;;;;;;;5054926;28;20255;-25
2022/12/29 13:16:37;;;;;;;;;;;;;;;;;;5053776;28;20008;-25
2022/12/29 13:19:03;;;;;;;;;;;;;;;;;;5054836;28;20366;-25
2022/12/29 13:21:29;;;;;;;;;;;;;;;;;;5055124;28;19919;-24
2022/12/29 13:23:55;;;;;;;;;;;;;;;;;;5054688;28;20247;-24
2022/12/29 13:26:21;;;;;;;;;;;;;;;;;;5054950;28;19913;-24
2022/12/29 13:28:47;;;;;;;;;;;;;;;;;;5054744;28;20255;-24
2022/12/29 13:31:13;;;;;;;;;;;;;;;;;;5054850;28;19917;-24
2022/12/29 13:33:39;;;;;;;;;;;;;;;;;;5055068;28;20332;-24
2022/12/29 13:36:05;;;;;;;;;;;;;;;;;;5054713;28;19913;-24
2022/12/29 13:38:31;;;;;;;;;;;;;;;;;;5054638;28;19958;-25
2022/12/29 13:40:57;;;;;;;;;;;;;;;;;;5054555;28;19913;-24
2022/12/29 13:43:23;;;;;;;;;;;;;;;;;;5053178;28;19912;-25
2022/12/29 13:45:49;;;;;;;;;;;;;;;;;;5054167;28;19913;-24
2022/12/29 13:48:16;;;;;;;;;;;;;;;;;;5054539;28;19959;-25
2022/12/29 13:50:42;;;;;;;;;;;;;;;;;;5054448;28;19975;-24
2022/12/29 13:53:08;;;;;;;;;;;;;;;;;;5054431;28;20263;-24
2022/12/29 13:55:34;;;;;;;;;;;;;;;;;;5054457;28;19927;-24
2022/12/29 13:58:00;;;;;;;;;;;;;;;;;;5054289;28;19909;-24
2022/12/29 14:00:26;;;;;;;;;;;;;;;;;;5054509;28;19913;-25
2022/12/29 14:02:52;;;;;;;;;;;;;;;;;;5053894;28;20244;-25
2022/12/29 14:05:21;;;;;;;;;;;;;;;;;;5054226;28;19917;-25
2022/12/29 14:07:47;;;;;;;;;;;;;;;;;;5054704;28;19944;-25
2022/12/29 14:10:13;;;;;;;;;;;;;;;;;;5054325;28;20318;-25
2022/12/29 14:12:39;;;;;;;;;;;;;;;;;;5054493;28;19909;-36
2022/12/29 14:15:06;;;;;;;;;;;;;;;;;;5054639;28;19919;-25
2022/12/29 14:17:32;;;;;;;;;;;;;;;;;;5054152;28;19913;-25
2022/12/29 14:19:58;;;;;;;;;;;;;;;;;;5053128;28;19970;-25
2022/12/29 14:22:24;;;;;;;;;;;;;;;;;;5053812;28;19928;-25
2022/12/29 14:24:50;;;;;;;;;;;;;;;;;;5053966;28;19917;-25
2022/12/29 14:27:16;;;;;;;;;;;;;;;;;;5053855;28;19924;-25
2022/12/29 14:29:42;;;;;;;;;;;;;;;;;;5053998;28;19970;-25
2022/12/29 14:32:08;;;;;;;;;;;;;;;;;;5053959;28;20014;-25
2022/12/29 14:34:34;;;;;;;;;;;;;;;;;;5053990;28;19913;-23
2022/12/29 14:37:00;;;;;;;;;;;;;;;;;;5054099;28;20057;-25
2022/12/29 14:39:26;;;;;;;;;;;;;;;;;;5053881;28;20231;-25
2022/12/29 14:41:52;;;;;;;;;;;;;;;;;;5052578;28;20344;-25
2022/12/29 14:44:18;;;;;;;;;;;;;;;;;;5053773;28;20023;-25
2022/12/29 14:46:44;;;;;;;;;;;;;;;;;;5053990;28;19966;-25
2022/12/29 14:49:10;;;;;;;;;;;;;;;;;;5053921;28;19917;-25
2022/12/29 14:51:36;;;;;;;;;;;;;;;;;;5053837;28;20347;-25
2022/12/29 14:54:02;;;;;;;;;;;;;;;;;;5054703;28;19999;-25
2022/12/29 14:56:28;;;;;;;;;;;;;;;;;;5057682;28;20319;-26
2022/12/29 14:58:54;;;;;;;;;;;;;;;;;;5057555;28;20271;-25
2022/12/29 15:01:20;;;;;;;;;;;;;;;;;;5057716;28;20309;-25
2022/12/29 15:03:46;;;;;;;;;;;;;;;;;;5057080;28;19921;-26
2022/12/29 15:06:12;;;;;;;;;;;;;;;;;;5057473;28;19913;-25
2022/12/29 15:08:38;;;;;;;;;;;;;;;;;;5057309;28;19920;-25
2022/12/29 15:11:04;;;;;;;;;;;;;;;;;;5057153;28;19916;-25
2022/12/29 15:13:30;;;;;;;;;;;;;;;;;;5057200;28;20351;-25
2022/12/29 15:15:56;;;;;;;;;;;;;;;;;;5057430;28;20340;-26
2022/12/29 15:18:23;;;;;;;;;;;;;;;;;;5057159;28;19912;-26
2022/12/29 15:20:49;;;;;;;;;;;;;;;;;;5057287;28;19939;-25
2022/12/29 15:23:15;;;;;;;;;;;;;;;;;;5056969;28;20019;-26
2022/12/29 15:25:41;;;;;;;;;;;;;;;;;;5057258;28;19927;-25
2022/12/29 15:28:07;;;;;;;;;;;;;;;;;;5057430;28;19991;-25
2022/12/29 15:30:33;;;;;;;;;;;;;;;;;;5056213;28;19928;-26
2022/12/29 15:32:59;;;;;;;;;;;;;;;;;;5057274;28;19912;-26
2022/12/29 15:35:25;;;;;;;;;;;;;;;;;;5057208;28;20285;-26
2022/12/29 15:37:51;;;;;;;;;;;;;;;;;;5056977;28;19913;-23
2022/12/29 15:40:17;;;;;;;;;;;;;;;;;;5057089;28;19913;-26
2022/12/29 15:42:43;;;;;;;;;;;;;;;;;;5056808;28;20308;-25
2022/12/29 15:45:09;;;;;;;;;;;;;;;;;;5056689;28;19924;-26
2022/12/29 15:47:35;;;;;;;;;;;;;;;;;;5056975;28;20344;-26
2022/12/29 15:50:01;;;;;;;;;;;;;;;;;;5056981;28;19971;-26
2022/12/29 15:52:28;;;;;;;;;;;;;;;;;;5056633;28;19909;-26
2022/12/29 15:54:54;;;;;;;;;;;;;;;;;;5056910;28;19921;-26
2022/12/29 15:57:20;;;;;;;;;;;;;;;;;;5056691;28;19967;-26
2022/12/29 15:59:47;;;;;;;;;;;;;;;;;;5055604;28;19912;-26
2022/12/29 16:02:12;;;;;;;;;;;;;;;;;;5056486;28;19917;-23
2022/12/29 16:04:38;;;;;;;;;;;;;;;;;;5055923;28;19921;-23
2022/12/29 16:07:05;;;;;;;;;;;;;;;;;;5055357;28;19928;-23
2022/12/29 16:09:31;;;;;;;;;;;;;;;;;;5056368;28;19913;-23
2022/12/29 16:11:57;;;;;;;;;;;;;;;;;;5056131;28;19913;-23
2022/12/29 16:14:23;;;;;;;;;;;;;;;;;;5055980;28;19978;-23
2022/12/29 16:16:48;;;;;;;;;;;;;;;;;;5054399;28;19913;-23
2022/12/29 16:19:15;;;;;;;;;;;;;;;;;;5055990;28;20053;-23
2022/12/29 16:21:41;;;;;;;;;;;;;;;;;;5055450;28;19916;-23
2022/12/29 16:24:07;;;;;;;;;;;;;;;;;;5055678;28;20251;-23
2022/12/29 16:26:33;;;;;;;;;;;;;;;;;;5055514;28;20278;-23
2022/12/29 16:28:59;;;;;;;;;;;;;;;;;;5054383;28;19917;-23
2022/12/29 16:31:25;;;;;;;;;;;;;;;;;;5055473;28;19912;-23
2022/12/29 16:33:51;;;;;;;;;;;;;;;;;;5055219;28;19957;-23
2022/12/29 16:36:17;;;;;;;;;;;;;;;;;;5055397;28;19966;-23
2022/12/29 16:38:46;;;;;;;;;;;;;;;;;;5055771;28;20025;-23
2022/12/29 16:41:12;;;;;;;;;;;;;;;;;;5054489;28;19916;-23
2022/12/29 16:43:42;;;;;;;;;;;;;;;;;;5055654;28;19932;-23
2022/12/29 16:46:08;;;;;;;;;;;;;;;;;;5055350;28;19912;-23
2022/12/29 16:48:34;;;;;;;;;;;;;;;;;;5055628;28;20228;-23
2022/12/29 16:51:00;;;;;;;;;;;;;;;;;;5055471;28;19919;-23
2022/12/29 16:53:26;;;;;;;;;;;;;;;;;;5055452;28;19909;-23
2022/12/29 16:55:52;;;;;;;;;;;;;;;;;;5055836;28;19934;-23
2022/12/29 16:58:18;;;;;;;;;;;;;;;;;;5055508;28;19972;-23
2022/12/29 17:00:44;;;;;;;;;;;;;;;;;;5055459;28;19959;-23
2022/12/29 17:03:10;;;;;;;;;;;;;;;;;;5055297;28;20007;-23
2022/12/29 17:05:36;;;;;;;;;;;;;;;;;;5055634;28;20466;-23